Latest Weather Observations for Proserpine

IDQ60801

Issued at 8:32 am EST Thursday 5 May 2016 (issued every 30 minutes, with the page automatically refreshed every 10 minutes)

About weather observations | Map of weather stations | Latest weather observations for QLD | Other Formats
Station Details ID: 033247 Name: PROSERPINE AIRPORT Lat: -20.49 Lon: 148.56 Height: 19.7 m
Data from the previous 72 hours. | See also: Recent months at Proserpine
Date/Time
EST
Temp
°C
App
Temp
°C
Dew
Point
Rel
Hum
%
Delta-T
°C
Wind Press
QNH
hPa
Press
MSL
hPa
Rain
since 9 am
mm
Dir
 
Spd
km/h
Gust
km/h
Spd
kts
Gust
kts
05/08:30am 24.6 27.3 22.1 86 1.7 SSE 11 13 6 7 1017.6 1017.6 2.4
05/08:00am 23.3 27.8 22.3 94 0.7 SE 2 7 1 4 1017.4 1017.4 2.4
05/07:30am 21.8 24.9 21.1 96 0.5 SSW 6 9 3 5 1017.1 1017.1 2.4
05/07:00am 20.7 22.9 20.4 98 0.2 SSW 9 11 5 6 1016.6 1016.6 2.4
05/06:30am 20.4 22.5 20.1 98 0.2 SSW 9 11 5 6 1016.2 1016.2 2.4
05/06:00am 20.4 22.9 19.9 97 0.3 SSW 6 9 3 5 1016.0 1016.0 2.4
05/05:30am 20.5 22.9 20.0 97 0.3 SSW 7 9 4 5 1015.8 1015.8 2.4
05/05:00am 20.6 24.4 20.1 97 0.3 CALM 0 0 0 0 1015.6 1015.6 2.4
05/04:30am 20.6 24.4 20.1 97 0.3 CALM 0 0 0 0 1015.3 1015.3 2.4
05/04:08am 20.8 24.7 20.3 97 0.3 CALM 0 0 0 0 1015.3 1015.3 2.4
05/04:00am 20.9 24.8 20.4 97 0.3 CALM 0 0 0 0 1015.3 1015.3 2.4
05/03:49am 20.9 24.8 20.4 97 0.3 CALM 0 0 0 0 1015.2 1015.2 2.4
05/03:33am 21.0 25.0 20.5 97 0.3 CALM 0 0 0 0 1015.2 1015.2 2.4
05/03:30am 21.1 25.1 20.6 97 0.3 CALM 0 0 0 0 1015.2 1015.2 2.4
05/03:00am 21.0 25.0 20.5 97 0.3 CALM 0 0 0 0 1015.0 1015.0 2.4
05/02:54am 21.0 25.0 20.5 97 0.3 CALM 0 0 0 0 1014.9 1014.9 2.4
05/02:30am 21.4 25.6 20.9 97 0.3 CALM 0 0 0 0 1015.0 1015.0 2.4
05/02:00am 21.6 24.7 21.1 97 0.3 S 6 7 3 4 1015.0 1015.0 2.4
05/01:30am 21.8 24.9 21.1 96 0.5 SSW 6 7 3 4 1015.3 1015.3 2.4
05/01:00am 22.2 25.4 21.7 97 0.3 S 7 7 4 4 1015.5 1015.5 2.4
05/12:30am 22.2 26.8 21.7 97 0.3 CALM 0 0 0 0 1015.7 1015.7 2.4
05/12:00am 22.2 26.8 21.7 97 0.3 CALM 0 0 0 0 1015.9 1015.9 2.4
 
Date/Time
EST
Temp
°C
App
Temp
°C
Dew
Point
Rel
Hum
%
Delta-T
°C
Wind Press
QNH
hPa
Press
MSL
hPa
Rain
since 9 am
mm
Dir
 
Spd
km/h
Gust
km/h
Spd
kts
Gust
kts
04/11:30pm 22.3 26.9 21.8 97 0.3 CALM 0 0 0 0 1016.2 1016.2 2.4
04/11:00pm 22.3 26.9 21.8 97 0.3 CALM 0 0 0 0 1016.3 1016.3 2.4
04/10:30pm 22.3 25.5 21.6 96 0.5 W 7 9 4 5 1016.6 1016.6 2.4
04/10:00pm 22.5 26.7 21.8 96 0.5 SW 2 6 1 3 1016.8 1016.8 2.4
04/09:30pm 22.6 25.9 21.9 96 0.5 SSE 7 9 4 5 1016.8 1016.8 2.4
04/09:00pm 22.6 25.6 21.9 96 0.5 S 9 13 5 7 1017.0 1017.0 2.4
04/08:30pm 22.6 27.3 21.9 96 0.5 CALM 0 6 0 3 1016.9 1016.9 2.4
04/08:00pm 22.7 26.3 22.0 96 0.5 SW 6 7 3 4 1016.6 1016.6 2.2
04/07:30pm 22.8 26.4 22.0 95 0.5 SSW 6 7 3 4 1016.2 1016.2 1.8
04/07:00pm 22.9 26.0 22.2 96 0.5 WNW 9 11 5 6 1016.1 1016.1 1.6
04/06:30pm 23.0 26.7 22.2 95 0.5 WSW 6 7 3 4 1015.5 1015.5 1.6
04/06:00pm 23.0 26.2 22.3 96 0.5 SW 9 11 5 6 1015.4 1015.4 1.6
04/05:30pm 23.1 26.6 22.1 94 0.7 SSW 7 11 4 6 1015.0 1015.0 1.0
04/05:00pm 23.4 25.2 21.8 91 1.1 SSE 15 20 8 11 1014.6 1014.6 0.4
04/04:30pm 23.8 25.4 22.1 90 1.1 SSE 17 28 9 15 1014.2 1014.2 0.0
04/04:00pm 25.3 25.9 22.8 86 1.7 SE 24 35 13 19 1013.4 1013.4 0.0
04/03:30pm 26.9 28.3 22.5 77 3.0 SE 19 26 10 14 1012.8 1012.8 0.0
04/03:00pm 28.3 29.3 22.1 69 4.2 SE 20 26 11 14 1012.4 1012.4 0.0
04/02:30pm 29.4 30.3 21.6 63 5.2 ESE 19 24 10 13 1012.1 1012.1 0.0
04/02:00pm 30.5 32.7 21.9 60 5.8 E 13 19 7 10 1012.1 1012.1 0.0
04/01:30pm 30.3 33.0 21.4 59 6.0 ENE 9 13 5 7 1012.5 1012.5 0.0
04/01:00pm 30.1 32.9 20.9 57 6.1 ESE 7 11 4 6 1013.1 1013.1 0.0
04/12:30pm 29.6 32.3 20.7 58 5.9 N 7 13 4 7 1013.6 1013.6 0.0
04/12:00pm 29.3 32.6 21.8 64 5.0 NNE 7 13 4 7 1014.0 1014.0 0.0
04/11:30am 28.9 32.5 22.4 68 4.4 NE 7 11 4 6 1014.4 1014.4 0.0
04/11:00am 28.2 31.4 21.7 68 4.4 N 7 11 4 6 1015.0 1015.0 0.0
04/10:30am 27.3 31.2 21.8 72 3.7 NNE 4 7 2 4 1015.3 1015.3 0.0
04/10:00am 26.6 30.8 24.1 86 1.7 N 9 11 5 6 1015.7 1015.7 0.0
04/09:30am 24.3 29.6 23.1 93 0.8 CALM 0 0 0 0 1015.9 1015.9 0.0
04/09:00am 23.3 28.3 22.5 95 0.5 CALM 0 0 0 0 1016.2 1016.2 0.0
04/08:30am 22.7 27.4 22.0 96 0.5 CALM 0 0 0 0 1015.9 1015.9 0.0
04/08:00am 22.3 25.8 21.8 97 0.3 NNE 6 9 3 5 1015.7 1015.7 0.0
04/07:30am 22.0 25.3 21.5 97 0.3 N 6 11 3 6 1015.7 1015.7 0.0
04/07:00am 21.7 26.1 21.4 98 0.2 CALM 0 9 0 5 1015.4 1015.4 0.0
04/06:51am 21.1 25.2 20.8 98 0.2 CALM 0 0 0 0 1015.4 1015.4 0.0
04/06:39am 20.7 24.6 20.4 98 0.2 CALM 0 0 0 0 1015.2 1015.2 0.0
04/06:30am 20.7 24.6 20.4 98 0.2 CALM 0 0 0 0 1015.0 1015.0 0.0
04/06:00am 20.8 24.7 20.3 97 0.3 CALM 0 0 0 0 1014.5 1014.5 0.0
04/05:30am 20.9 24.9 20.6 98 0.2 CALM 0 0 0 0 1014.0 1014.0 0.0
04/05:24am 21.0 25.1 20.7 98 0.2 CALM 0 0 0 0 1014.0 1014.0 0.0
04/05:17am 20.9 24.9 20.6 98 0.2 CALM 0 0 0 0 1014.1 1014.1 0.0
04/05:03am 20.9 24.1 20.6 98 0.2 N 4 6 2 3 1014.0 1014.0 0.0
04/05:00am 20.9 24.1 20.6 98 0.2 N 4 9 2 5 1014.0 1014.0 0.0
04/04:36am 20.9 24.8 20.4 97 0.3 CALM 0 9 0 5 1013.7 1013.7 0.0
04/04:30am 20.9 24.8 20.4 97 0.3 CALM 0 0 0 0 1013.9 1013.9 0.0
04/04:00am 21.0 25.0 20.5 97 0.3 CALM 0 0 0 0 1013.8 1013.8 0.0
04/03:30am 21.0 25.0 20.5 97 0.3 CALM 0 0 0 0 1013.6 1013.6 0.0
04/03:00am 20.6 24.3 19.9 96 0.4 CALM 0 0 0 0 1013.5 1013.5 0.0
04/02:57am 20.6 24.3 19.9 96 0.4 CALM 0 0 0 0 1013.4 1013.4 0.0
04/02:35am 20.9 24.7 20.2 96 0.4 CALM 0 0 0 0 1013.8 1013.8 0.0
04/02:30am 21.1 25.1 20.6 97 0.3 CALM 0 0 0 0 1013.7 1013.7 0.0
04/02:11am 21.1 25.1 20.6 97 0.3 CALM 0 0 0 0 1013.8 1013.8 0.0
04/02:01am 21.1 25.0 20.4 96 0.5 CALM 0 0 0 0 1013.9 1013.9 0.0
04/02:00am 21.1 25.0 20.4 96 0.5 CALM 0 0 0 0 1013.9 1013.9 0.0
04/01:30am 21.3 25.3 20.6 96 0.5 CALM 0 0 0 0 1013.8 1013.8 0.0
04/01:21am 21.3 25.3 20.6 96 0.5 CALM 0 0 0 0 1013.9 1013.9 0.0
04/01:06am 21.6 25.8 20.9 96 0.5 CALM 0 0 0 0 1014.0 1014.0 0.0
04/01:00am 21.7 25.9 21.0 96 0.5 CALM 0 0 0 0 1014.1 1014.1 0.0
04/12:48am 21.4 25.5 20.7 96 0.5 CALM 0 0 0 0 1014.1 1014.1 0.0
04/12:32am 21.2 25.1 20.4 95 0.5 CALM 0 0 0 0 1014.3 1014.3 0.0
04/12:30am 21.3 25.3 20.5 95 0.5 CALM 0 0 0 0 1014.3 1014.3 0.0
04/12:00am 21.9 26.2 21.1 95 0.5 CALM 0 0 0 0 1014.5 1014.5 0.0
 
Date/Time
EST
Temp
°C
App
Temp
°C
Dew
Point
Rel
Hum
%
Delta-T
°C
Wind Press
QNH
hPa
Press
MSL
hPa
Rain
since 9 am
mm
Dir
 
Spd
km/h
Gust
km/h
Spd
kts
Gust
kts
03/11:30pm 22.2 26.6 21.4 95 0.5 CALM 0 0 0 0 1014.8 1014.8 0.0
03/11:00pm 22.3 26.4 21.5 95 0.5 SSW 2 6 1 3 1014.9 1014.9 0.0
03/10:55pm 22.3 26.8 21.5 95 0.5 CALM 0 6 0 3 1014.9 1014.9 0.0
03/10:30pm 22.7 27.3 21.7 94 0.7 CALM 0 0 0 0 1014.7 1014.7 0.0
03/10:22pm 22.6 27.0 21.4 93 0.8 CALM 0 0 0 0 1014.7 1014.7 0.0
03/10:12pm 22.8 27.4 21.8 94 0.7 CALM 0 0 0 0 1014.7 1014.7 0.0
03/10:00pm 23.1 27.8 21.9 93 0.8 CALM 0 0 0 0 1014.9 1014.9 0.0
03/09:48pm 23.1 27.8 21.9 93 0.8 CALM 0 0 0 0 1015.1 1015.1 0.0
03/09:39pm 23.2 27.9 22.0 93 0.8 CALM 0 0 0 0 1015.0 1015.0 0.0
03/09:30pm 23.3 28.1 22.1 93 0.8 CALM 0 0 0 0 1015.1 1015.1 0.0
03/09:27pm 23.2 27.9 22.0 93 0.8 CALM 0 6 0 3 1015.1 1015.1 0.0
03/09:00pm 23.4 27.1 22.2 93 0.8 SSW 6 7 3 4 1015.1 1015.1 0.0
03/08:30pm 23.8 28.7 22.4 92 0.9 CALM 0 0 0 0 1015.0 1015.0 0.0
03/08:00pm 23.9 28.9 22.5 92 0.9 CALM 0 0 0 0 1014.6 1014.6 0.0
03/07:30pm 24.1 29.0 22.4 90 1.1 CALM 0 0 0 0 1014.5 1014.5 0.0
03/07:14pm 24.4 29.2 22.1 87 1.5 CALM 0 0 0 0 1014.2 1014.2 0.0
03/07:01pm 24.6 29.4 22.1 86 1.7 CALM 0 0 0 0 1014.0 1014.0 0.0
03/07:00pm 24.6 29.5 22.3 87 1.5 CALM 0 0 0 0 1013.9 1013.9 0.0
03/06:30pm 25.1 29.4 22.6 86 1.7 N 4 7 2 4 1013.5 1013.5 0.0
03/06:00pm 25.5 29.1 22.4 83 2.1 N 7 11 4 6 1013.1 1013.1 0.0
03/05:30pm 26.4 30.0 22.3 78 2.8 ENE 7 13 4 7 1012.5 1012.5 0.0
03/05:00pm 27.7 30.7 22.6 74 3.5 E 11 17 6 9 1011.9 1011.9 0.0
03/04:30pm 27.5 30.0 22.4 73 3.4 E 13 19 7 10 1011.7 1011.7 0.0
03/04:00pm 28.7 30.6 22.0 67 4.5 E 15 20 8 11 1011.5 1011.5 0.0
03/03:30pm 29.3 30.9 21.5 63 5.2 E 15 20 8 11 1011.5 1011.5 0.0
03/03:00pm 29.4 31.0 20.8 60 5.7 E 13 20 7 11 1011.4 1011.4 0.0
03/02:30pm 29.8 31.6 20.4 57 6.2 NE 11 15 6 8 1011.4 1011.4 0.0
03/02:00pm 30.1 33.0 20.6 56 6.3 ESE 6 13 3 7 1011.6 1011.6 0.0
03/01:30pm 30.0 32.8 18.8 51 7.2 E 2 6 1 3 1012.1 1012.1 0.0
03/01:00pm 29.5 32.0 19.8 56 6.4 NNE 6 9 3 5 1012.5 1012.5 0.0
03/12:30pm 29.5 32.3 20.9 60 5.7 WNW 7 13 4 7 1013.0 1013.0 0.0
03/12:00pm 29.4 32.2 21.6 63 5.2 N 9 13 5 7 1013.4 1013.4 0.0
03/11:30am 28.8 31.6 22.3 68 4.4 NNE 11 17 6 9 1013.8 1013.8 0.0
03/11:00am 27.3 30.7 21.6 71 3.8 N 6 9 3 5 1014.5 1014.5 0.0
03/10:30am 27.8 31.4 20.6 65 4.7 NNW 2 6 1 3 1015.0 1015.0 0.0
03/10:00am 27.3 31.0 22.3 74 3.4 SE 6 9 3 5 1015.3 1015.3 0.0
03/09:45am 26.6 31.1 22.2 77 3.0 N 2 6 1 3 1015.4 1015.4 0.0
03/09:30am 26.6 31.4 22.9 80 2.5 S 2 7 1 4 1015.5 1015.5 0.0
03/09:24am 26.3 30.5 22.4 79 2.6 NNE 4 7 2 4 1015.5 1015.5 0.0
03/09:00am 25.2 30.3 22.7 86 1.7 CALM 0 6 0 3 1015.4 1015.4 0.0
03/08:30am 24.4 29.0 22.5 89 1.3 NE 2 6 1 3 1015.3 1015.3 0.0
03/08:00am 22.8 27.4 21.8 94 0.7 CALM 0 0 0 0 1015.2 1015.2 0.0
03/07:30am 21.6 25.1 21.1 97 0.3 SW 4 7 2 4 1015.0 1015.0 0.0
03/07:07am 20.7 24.5 20.2 97 0.3 CALM 0 0 0 0 1014.9 1014.9 0.0
03/07:00am 20.7 24.6 20.4 98 0.2 CALM 0 0 0 0 1014.9 1014.9 0.0
03/06:30am 19.7 23.1 19.4 98 0.2 CALM 0 0 0 0 1014.6 1014.6 0.0
03/06:00am 19.9 23.0 19.6 98 0.2 WNW 2 6 1 3 1014.2 1014.2 0.0
03/05:38am 20.0 23.2 19.7 98 0.2 W 2 6 1 3 1014.0 1014.0 0.0
03/05:30am 19.9 22.3 19.6 98 0.2 W 6 7 3 4 1013.9 1013.9 0.0
03/05:00am 20.2 23.9 19.9 98 0.2 CALM 0 0 0 0 1013.8 1013.8 0.0
03/04:30am 20.0 23.5 19.5 97 0.3 CALM 0 0 0 0 1013.7 1013.7 0.0
03/04:08am 20.3 23.9 19.8 97 0.3 CALM 0 0 0 0 1013.5 1013.5 0.0
03/04:00am 20.4 24.1 19.9 97 0.3 CALM 0 0 0 0 1013.6 1013.6 0.0
03/03:59am 20.3 23.9 19.8 97 0.3 CALM 0 0 0 0 1013.7 1013.7 0.0
03/03:30am 20.5 24.1 19.8 96 0.4 CALM 0 0 0 0 1013.9 1013.9 0.0
03/03:27am 20.7 24.4 20.0 96 0.4 CALM 0 0 0 0 1013.9 1013.9 0.0
03/03:00am 21.1 24.0 20.6 97 0.3 SSW 6 6 3 3 1013.8 1013.8 0.0
03/02:30am 21.0 24.9 20.3 96 0.5 CALM 0 0 0 0 1013.9 1013.9 0.0
03/02:00am 21.5 25.6 20.8 96 0.5 CALM 0 0 0 0 1013.9 1013.9 0.0
03/01:56am 21.4 25.5 20.7 96 0.5 CALM 0 0 0 0 1014.0 1014.0 0.0
03/01:30am 21.5 25.2 20.8 96 0.5 SW 2 7 1 4 1014.3 1014.3 0.0
03/01:00am 21.9 26.2 21.2 96 0.5 CALM 0 0 0 0 1014.6 1014.6 0.0
03/12:30am 22.1 25.4 21.4 96 0.5 SW 6 7 3 4 1014.7 1014.7 0.0
03/12:00am 22.2 25.3 21.5 96 0.5 SSW 7 9 4 5 1015.0 1015.0 0.0
 
Date/Time
EST
Temp
°C
App
Temp
°C
Dew
Point
Rel
Hum
%
Delta-T
°C
Wind Press
QNH
hPa
Press
MSL
hPa
Rain
since 9 am
mm
Dir
 
Spd
km/h
Gust
km/h
Spd
kts
Gust
kts
02/11:30pm 22.5 26.7 21.8 96 0.5 SW 2 7 1 4 1015.2 1015.2 0.0
02/11:00pm 22.5 26.0 21.8 96 0.5 SW 6 7 3 4 1015.5 1015.5 0.0
02/10:30pm 22.6 27.2 21.8 95 0.5 CALM 0 0 0 0 1015.7 1015.7 0.0
02/10:00pm 22.8 27.5 22.0 95 0.5 CALM 0 0 0 0 1015.8 1015.8 0.0
02/09:30pm 23.0 27.8 22.2 95 0.5 CALM 0 0 0 0 1015.8 1015.8 0.0
02/09:00pm 23.0 27.8 22.2 95 0.5 CALM 0 0 0 0 1016.0 1016.0 0.0
02/08:30pm 23.4 28.0 22.4 94 0.7 SSW 2 6 1 3 1015.6 1015.6 0.0
02/08:00pm 23.7 27.7 22.7 94 0.7 S 6 7 3 4 1015.5 1015.5 0.0
02/07:30pm 24.0 28.0 22.8 93 0.8 SE 6 6 3 3 1015.1 1015.1 0.0
02/07:00pm 24.1 28.2 22.9 93 0.8 SE 6 7 3 4 1014.6 1014.6 0.0
02/06:30pm 24.7 28.8 23.3 92 1.0 ESE 7 11 4 6 1014.2 1014.2 0.0
02/06:00pm 25.0 28.3 23.2 90 1.2 SE 11 13 6 7 1013.8 1013.8 0.0
02/05:30pm 26.1 29.4 23.2 84 2.0 ESE 11 13 6 7 1013.4 1013.4 0.0
02/05:00pm 27.4 30.5 22.8 76 3.1 ESE 11 17 6 9 1013.1 1013.1 0.0
02/04:30pm 28.1 30.7 22.6 72 3.7 ESE 13 17 7 9 1012.8 1012.8 0.0
02/04:00pm 28.5 30.9 23.0 72 3.8 E 15 20 8 11 1012.6 1012.6 0.0
02/03:30pm 29.0 31.4 22.2 66 4.6 ESE 13 19 7 10 1012.5 1012.5 0.0
02/03:00pm 29.3 31.6 22.0 64 4.9 E 13 20 7 11 1012.7 1012.7 0.0
02/02:30pm 29.5 31.6 22.5 66 4.8 E 15 20 8 11 1012.7 1012.7 0.0
02/02:00pm 28.9 31.3 22.9 70 4.1 E 15 22 8 12 1012.8 1012.8 0.0
02/01:30pm 29.6 31.4 21.8 63 5.3 E 15 20 8 11 1013.2 1013.2 0.0
02/01:00pm 29.1 31.3 22.6 68 4.4 ESE 15 20 8 11 1013.5 1013.5 0.0
02/12:30pm 29.7 32.2 23.2 68 4.5 ESE 15 20 8 11 1014.1 1014.1 0.0
02/12:00pm 29.4 31.1 22.4 66 4.7 SE 17 20 9 11 1014.5 1014.5 0.0
02/11:30am 28.7 31.3 22.0 67 4.5 SE 11 17 6 9 1015.1 1015.1 0.0
02/11:00am 28.6 32.1 21.9 67 4.5 ESE 6 11 3 6 1015.5 1015.5 0.0
02/10:30am 27.3 31.5 22.5 75 3.2 ESE 4 9 2 5 1015.9 1015.9 0.0
02/10:00am 27.0 32.2 22.8 78 2.8 CALM 0 6 0 3 1016.3 1016.3 0.0
02/09:30am 26.0 29.9 22.9 83 2.1 SSE 7 11 4 6 1016.5 1016.5 0.0
02/09:00am 25.9 30.5 23.8 88 1.4 ESE 6 9 3 5 1016.4 1016.4 0.0

Other Formats:

Comma delimited format used in spreadsheet applications
http://www.bom.gov.au/fwo/IDQ60801/IDQ60801.94365.axf

JavaScript Object Notation format (JSON) in row-major order
http://www.bom.gov.au/fwo/IDQ60801/IDQ60801.94365.json